sensor_id;sensor_type;location;lat;lon;timestamp;P1;durP1;ratioP1;P2;durP2;ratioP2
6739;SDS011;3407;49.882;10.920;2023-01-23T00:04:50;15.20;;;8.10;;
6739;SDS011;3407;49.882;10.920;2023-01-23T00:09:46;10.70;;;7.90;;
6739;SDS011;3407;49.882;10.920;2023-01-23T00:14:41;14.60;;;8.60;;
6739;SDS011;3407;49.882;10.920;2023-01-23T00:19:37;14.80;;;8.13;;
6739;SDS011;3407;49.882;10.920;2023-01-23T00:24:33;13.90;;;8.57;;
6739;SDS011;3407;49.882;10.920;2023-01-23T00:29:28;12.80;;;8.10;;
6739;SDS011;3407;49.882;10.920;2023-01-23T00:34:24;15.30;;;8.83;;
6739;SDS011;3407;49.882;10.920;2023-01-23T00:39:20;13.03;;;7.67;;
6739;SDS011;3407;49.882;10.920;2023-01-23T00:44:16;13.20;;;8.00;;
6739;SDS011;3407;49.882;10.920;2023-01-23T00:49:12;11.43;;;7.47;;
6739;SDS011;3407;49.882;10.920;2023-01-23T00:54:07;10.27;;;7.80;;
6739;SDS011;3407;49.882;10.920;2023-01-23T00:59:03;10.37;;;7.17;;
6739;SDS011;3407;49.882;10.920;2023-01-23T01:03:59;12.13;;;7.37;;
6739;SDS011;3407;49.882;10.920;2023-01-23T01:08:55;13.87;;;7.67;;
6739;SDS011;3407;49.882;10.920;2023-01-23T01:13:51;10.43;;;7.60;;
6739;SDS011;3407;49.882;10.920;2023-01-23T01:18:47;10.77;;;7.13;;
6739;SDS011;3407;49.882;10.920;2023-01-23T01:23:43;9.17;;;7.27;;
6739;SDS011;3407;49.882;10.920;2023-01-23T01:28:39;10.57;;;6.10;;
6739;SDS011;3407;49.882;10.920;2023-01-23T01:33:39;12.83;;;7.33;;
6739;SDS011;3407;49.882;10.920;2023-01-23T01:38:36;9.30;;;6.80;;
6739;SDS011;3407;49.882;10.920;2023-01-23T01:43:32;8.73;;;6.40;;
6739;SDS011;3407;49.882;10.920;2023-01-23T01:53:46;7.90;;;6.40;;
6739;SDS011;3407;49.882;10.920;2023-01-23T01:58:45;9.17;;;6.40;;
6739;SDS011;3407;49.882;10.920;2023-01-23T02:03:44;11.87;;;6.40;;
6739;SDS011;3407;49.882;10.920;2023-01-23T02:08:52;10.30;;;7.03;;
6739;SDS011;3407;49.882;10.920;2023-01-23T02:14:07;8.33;;;6.50;;
6739;SDS011;3407;49.882;10.920;2023-01-23T02:19:06;9.90;;;6.47;;
6739;SDS011;3407;49.882;10.920;2023-01-23T02:24:22;11.47;;;7.30;;
6739;SDS011;3407;49.882;10.920;2023-01-23T02:29:25;10.23;;;7.27;;
6739;SDS011;3407;49.882;10.920;2023-01-23T02:34:21;11.00;;;6.80;;
6739;SDS011;3407;49.882;10.920;2023-01-23T02:39:19;10.47;;;6.87;;
6739;SDS011;3407;49.882;10.920;2023-01-23T02:49:21;10.80;;;7.00;;
6739;SDS011;3407;49.882;10.920;2023-01-23T02:54:17;10.47;;;6.90;;
6739;SDS011;3407;49.882;10.920;2023-01-23T02:59:13;10.23;;;7.27;;
6739;SDS011;3407;49.882;10.920;2023-01-23T03:04:27;10.37;;;6.53;;
6739;SDS011;3407;49.882;10.920;2023-01-23T03:09:23;9.10;;;6.93;;
6739;SDS011;3407;49.882;10.920;2023-01-23T03:14:20;9.13;;;6.47;;
6739;SDS011;3407;49.882;10.920;2023-01-23T03:19:17;8.77;;;6.63;;
6739;SDS011;3407;49.882;10.920;2023-01-23T03:24:14;13.27;;;8.13;;
6739;SDS011;3407;49.882;10.920;2023-01-23T03:29:14;13.53;;;6.70;;
6739;SDS011;3407;49.882;10.920;2023-01-23T03:34:33;11.63;;;7.40;;
6739;SDS011;3407;49.882;10.920;2023-01-23T03:39:28;10.50;;;7.47;;
6739;SDS011;3407;49.882;10.920;2023-01-23T03:44:43;8.83;;;6.57;;
6739;SDS011;3407;49.882;10.920;2023-01-23T03:49:38;11.93;;;8.00;;
6739;SDS011;3407;49.882;10.920;2023-01-23T03:54:34;9.53;;;7.13;;
6739;SDS011;3407;49.882;10.920;2023-01-23T03:59:30;10.93;;;7.83;;
6739;SDS011;3407;49.882;10.920;2023-01-23T04:04:25;11.60;;;7.83;;
6739;SDS011;3407;49.882;10.920;2023-01-23T04:09:21;12.60;;;6.70;;
6739;SDS011;3407;49.882;10.920;2023-01-23T04:14:22;11.70;;;7.47;;
6739;SDS011;3407;49.882;10.920;2023-01-23T04:19:18;14.53;;;8.20;;
6739;SDS011;3407;49.882;10.920;2023-01-23T04:24:15;11.40;;;8.20;;
6739;SDS011;3407;49.882;10.920;2023-01-23T04:29:11;12.47;;;7.83;;
6739;SDS011;3407;49.882;10.920;2023-01-23T04:34:06;16.67;;;9.30;;
6739;SDS011;3407;49.882;10.920;2023-01-23T04:39:02;11.77;;;8.00;;
6739;SDS011;3407;49.882;10.920;2023-01-23T04:43:58;13.60;;;8.40;;
6739;SDS011;3407;49.882;10.920;2023-01-23T04:49:14;10.73;;;7.83;;
6739;SDS011;3407;49.882;10.920;2023-01-23T04:54:10;13.77;;;7.87;;
6739;SDS011;3407;49.882;10.920;2023-01-23T04:59:06;12.37;;;7.70;;
6739;SDS011;3407;49.882;10.920;2023-01-23T05:04:01;11.13;;;7.67;;
6739;SDS011;3407;49.882;10.920;2023-01-23T05:08:57;10.13;;;6.80;;
6739;SDS011;3407;49.882;10.920;2023-01-23T05:18:51;9.90;;;6.80;;
6739;SDS011;3407;49.882;10.920;2023-01-23T05:23:46;12.17;;;7.30;;
6739;SDS011;3407;49.882;10.920;2023-01-23T05:28:42;14.20;;;8.27;;
6739;SDS011;3407;49.882;10.920;2023-01-23T05:33:37;11.70;;;7.93;;
6739;SDS011;3407;49.882;10.920;2023-01-23T05:38:34;13.33;;;8.47;;
6739;SDS011;3407;49.882;10.920;2023-01-23T05:43:29;13.60;;;8.70;;
6739;SDS011;3407;49.882;10.920;2023-01-23T05:48:25;13.00;;;8.13;;
6739;SDS011;3407;49.882;10.920;2023-01-23T05:53:21;12.20;;;7.67;;
6739;SDS011;3407;49.882;10.920;2023-01-23T05:58:16;11.50;;;8.17;;
6739;SDS011;3407;49.882;10.920;2023-01-23T06:03:12;12.00;;;7.33;;
6739;SDS011;3407;49.882;10.920;2023-01-23T06:08:07;11.67;;;7.83;;
6739;SDS011;3407;49.882;10.920;2023-01-23T06:13:03;11.77;;;7.60;;
6739;SDS011;3407;49.882;10.920;2023-01-23T06:17:58;11.03;;;8.13;;
6739;SDS011;3407;49.882;10.920;2023-01-23T06:22:54;12.80;;;7.83;;
6739;SDS011;3407;49.882;10.920;2023-01-23T06:27:50;13.73;;;8.50;;
6739;SDS011;3407;49.882;10.920;2023-01-23T06:32:46;14.27;;;8.17;;
6739;SDS011;3407;49.882;10.920;2023-01-23T06:37:41;14.13;;;8.50;;
6739;SDS011;3407;49.882;10.920;2023-01-23T06:42:37;13.30;;;7.50;;
6739;SDS011;3407;49.882;10.920;2023-01-23T06:47:36;16.97;;;9.00;;
6739;SDS011;3407;49.882;10.920;2023-01-23T06:52:31;15.47;;;10.20;;
6739;SDS011;3407;49.882;10.920;2023-01-23T06:57:27;12.83;;;9.00;;
6739;SDS011;3407;49.882;10.920;2023-01-23T07:02:22;12.23;;;7.60;;
6739;SDS011;3407;49.882;10.920;2023-01-23T07:07:18;14.40;;;8.57;;
6739;SDS011;3407;49.882;10.920;2023-01-23T07:12:14;12.47;;;8.00;;
6739;SDS011;3407;49.882;10.920;2023-01-23T07:17:09;15.67;;;8.93;;
6739;SDS011;3407;49.882;10.920;2023-01-23T07:22:05;11.17;;;8.63;;
6739;SDS011;3407;49.882;10.920;2023-01-23T07:27:00;12.60;;;8.27;;
6739;SDS011;3407;49.882;10.920;2023-01-23T07:31:57;12.10;;;8.07;;
6739;SDS011;3407;49.882;10.920;2023-01-23T07:36:53;11.90;;;7.70;;
6739;SDS011;3407;49.882;10.920;2023-01-23T07:41:48;13.00;;;8.90;;
6739;SDS011;3407;49.882;10.920;2023-01-23T07:46:44;12.93;;;8.73;;
6739;SDS011;3407;49.882;10.920;2023-01-23T07:51:40;15.00;;;8.80;;
6739;SDS011;3407;49.882;10.920;2023-01-23T07:56:36;10.93;;;7.87;;
6739;SDS011;3407;49.882;10.920;2023-01-23T08:01:31;13.00;;;8.70;;
6739;SDS011;3407;49.882;10.920;2023-01-23T08:06:27;19.70;;;9.20;;
6739;SDS011;3407;49.882;10.920;2023-01-23T08:11:22;13.93;;;8.50;;
6739;SDS011;3407;49.882;10.920;2023-01-23T08:16:20;12.57;;;8.57;;
6739;SDS011;3407;49.882;10.920;2023-01-23T08:21:15;13.87;;;8.97;;
6739;SDS011;3407;49.882;10.920;2023-01-23T08:26:11;13.90;;;8.27;;
6739;SDS011;3407;49.882;10.920;2023-01-23T08:31:09;10.43;;;8.30;;
6739;SDS011;3407;49.882;10.920;2023-01-23T08:36:06;14.70;;;8.77;;
6739;SDS011;3407;49.882;10.920;2023-01-23T08:41:02;14.50;;;8.30;;
6739;SDS011;3407;49.882;10.920;2023-01-23T08:45:58;12.23;;;7.60;;
6739;SDS011;3407;49.882;10.920;2023-01-23T08:51:04;14.07;;;9.30;;
6739;SDS011;3407;49.882;10.920;2023-01-23T08:56:03;14.30;;;8.00;;
6739;SDS011;3407;49.882;10.920;2023-01-23T09:01:01;9.80;;;8.00;;
6739;SDS011;3407;49.882;10.920;2023-01-23T09:06:00;11.20;;;8.07;;
6739;SDS011;3407;49.882;10.920;2023-01-23T09:11:03;12.33;;;7.97;;
6739;SDS011;3407;49.882;10.920;2023-01-23T09:15:59;12.93;;;8.07;;
6739;SDS011;3407;49.882;10.920;2023-01-23T09:20:56;10.37;;;7.23;;
6739;SDS011;3407;49.882;10.920;2023-01-23T09:25:51;10.77;;;7.87;;
6739;SDS011;3407;49.882;10.920;2023-01-23T09:30:47;11.27;;;7.77;;
6739;SDS011;3407;49.882;10.920;2023-01-23T09:35:42;9.63;;;7.33;;
6739;SDS011;3407;49.882;10.920;2023-01-23T09:40:44;11.90;;;7.60;;
6739;SDS011;3407;49.882;10.920;2023-01-23T09:45:46;10.10;;;6.43;;
6739;SDS011;3407;49.882;10.920;2023-01-23T09:51:05;13.33;;;7.87;;
6739;SDS011;3407;49.882;10.920;2023-01-23T09:56:16;11.97;;;7.33;;
6739;SDS011;3407;49.882;10.920;2023-01-23T10:01:28;15.57;;;11.53;;
6739;SDS011;3407;49.882;10.920;2023-01-23T10:06:29;12.03;;;7.70;;
6739;SDS011;3407;49.882;10.920;2023-01-23T10:11:38;12.43;;;7.23;;
6739;SDS011;3407;49.882;10.920;2023-01-23T10:16:41;14.50;;;8.10;;
6739;SDS011;3407;49.882;10.920;2023-01-23T10:22:06;11.63;;;6.63;;
6739;SDS011;3407;49.882;10.920;2023-01-23T10:27:13;10.03;;;7.07;;
6739;SDS011;3407;49.882;10.920;2023-01-23T10:32:25;12.23;;;7.63;;
6739;SDS011;3407;49.882;10.920;2023-01-23T10:37:37;13.67;;;7.37;;
6739;SDS011;3407;49.882;10.920;2023-01-23T10:42:45;11.17;;;7.17;;
6739;SDS011;3407;49.882;10.920;2023-01-23T10:47:41;11.77;;;7.57;;
6739;SDS011;3407;49.882;10.920;2023-01-23T10:52:44;9.77;;;7.20;;
6739;SDS011;3407;49.882;10.920;2023-01-23T10:57:44;10.83;;;7.73;;
6739;SDS011;3407;49.882;10.920;2023-01-23T11:02:42;12.97;;;8.80;;
6739;SDS011;3407;49.882;10.920;2023-01-23T11:07:38;11.27;;;8.20;;
6739;SDS011;3407;49.882;10.920;2023-01-23T11:12:34;12.97;;;7.60;;
6739;SDS011;3407;49.882;10.920;2023-01-23T11:17:44;12.10;;;7.77;;
6739;SDS011;3407;49.882;10.920;2023-01-23T11:22:39;10.73;;;7.60;;
6739;SDS011;3407;49.882;10.920;2023-01-23T11:27:38;12.97;;;7.70;;
6739;SDS011;3407;49.882;10.920;2023-01-23T11:32:48;11.13;;;7.50;;
6739;SDS011;3407;49.882;10.920;2023-01-23T11:37:45;10.00;;;6.43;;
6739;SDS011;3407;49.882;10.920;2023-01-23T11:42:41;12.13;;;7.00;;
6739;SDS011;3407;49.882;10.920;2023-01-23T12:08:49;8.07;;;6.00;;
6739;SDS011;3407;49.882;10.920;2023-01-23T12:14:03;8.43;;;6.50;;
6739;SDS011;3407;49.882;10.920;2023-01-23T12:29:47;7.47;;;5.27;;
6739;SDS011;3407;49.882;10.920;2023-01-23T12:35:04;7.33;;;5.07;;
6739;SDS011;3407;49.882;10.920;2023-01-23T12:40:21;7.37;;;5.57;;
6739;SDS011;3407;49.882;10.920;2023-01-23T12:45:23;7.27;;;5.40;;
6739;SDS011;3407;49.882;10.920;2023-01-23T12:50:23;5.67;;;5.10;;
6739;SDS011;3407;49.882;10.920;2023-01-23T12:55:29;6.17;;;4.87;;
6739;SDS011;3407;49.882;10.920;2023-01-23T13:16:28;4.47;;;4.07;;
6739;SDS011;3407;49.882;10.920;2023-01-23T13:21:24;5.23;;;4.53;;
6739;SDS011;3407;49.882;10.920;2023-01-23T13:26:40;6.33;;;4.57;;
6739;SDS011;3407;49.882;10.920;2023-01-23T13:36:44;6.23;;;5.20;;
6739;SDS011;3407;49.882;10.920;2023-01-23T13:41:42;9.43;;;5.13;;
6739;SDS011;3407;49.882;10.920;2023-01-23T13:51:38;5.93;;;4.80;;
6739;SDS011;3407;49.882;10.920;2023-01-23T13:56:34;7.97;;;5.27;;
6739;SDS011;3407;49.882;10.920;2023-01-23T14:01:51;4.77;;;4.30;;
6739;SDS011;3407;49.882;10.920;2023-01-23T14:07:22;4.77;;;4.27;;
6739;SDS011;3407;49.882;10.920;2023-01-23T14:12:38;8.70;;;4.97;;
6739;SDS011;3407;49.882;10.920;2023-01-23T14:17:33;6.73;;;5.00;;
6739;SDS011;3407;49.882;10.920;2023-01-23T14:22:33;5.53;;;4.50;;
6739;SDS011;3407;49.882;10.920;2023-01-23T14:27:33;5.60;;;4.90;;
6739;SDS011;3407;49.882;10.920;2023-01-23T14:32:33;5.87;;;4.50;;
6739;SDS011;3407;49.882;10.920;2023-01-23T14:37:28;6.97;;;5.23;;
6739;SDS011;3407;49.882;10.920;2023-01-23T14:42:27;6.40;;;4.70;;
6739;SDS011;3407;49.882;10.920;2023-01-23T14:47:36;6.07;;;5.33;;
6739;SDS011;3407;49.882;10.920;2023-01-23T14:52:39;7.70;;;5.23;;
6739;SDS011;3407;49.882;10.920;2023-01-23T14:57:35;6.33;;;5.10;;
6739;SDS011;3407;49.882;10.920;2023-01-23T15:02:33;11.23;;;6.40;;
6739;SDS011;3407;49.882;10.920;2023-01-23T15:07:29;5.93;;;5.33;;
6739;SDS011;3407;49.882;10.920;2023-01-23T15:12:25;6.47;;;5.50;;
6739;SDS011;3407;49.882;10.920;2023-01-23T15:17:22;8.27;;;6.97;;
6739;SDS011;3407;49.882;10.920;2023-01-23T15:22:24;9.33;;;7.20;;
6739;SDS011;3407;49.882;10.920;2023-01-23T15:27:23;13.90;;;8.57;;
6739;SDS011;3407;49.882;10.920;2023-01-23T15:32:23;7.73;;;6.13;;
6739;SDS011;3407;49.882;10.920;2023-01-23T15:37:21;10.33;;;7.13;;
6739;SDS011;3407;49.882;10.920;2023-01-23T15:47:22;8.27;;;5.70;;
6739;SDS011;3407;49.882;10.920;2023-01-23T15:52:27;15.50;;;9.50;;
6739;SDS011;3407;49.882;10.920;2023-01-23T15:57:25;9.03;;;6.60;;
6739;SDS011;3407;49.882;10.920;2023-01-23T16:02:21;12.53;;;8.10;;
6739;SDS011;3407;49.882;10.920;2023-01-23T16:07:25;13.30;;;8.13;;
6739;SDS011;3407;49.882;10.920;2023-01-23T16:12:28;13.37;;;9.17;;
6739;SDS011;3407;49.882;10.920;2023-01-23T16:17:24;8.40;;;7.20;;
6739;SDS011;3407;49.882;10.920;2023-01-23T16:22:21;10.40;;;7.40;;
6739;SDS011;3407;49.882;10.920;2023-01-23T16:27:20;8.73;;;6.83;;
6739;SDS011;3407;49.882;10.920;2023-01-23T16:32:21;8.57;;;6.63;;
6739;SDS011;3407;49.882;10.920;2023-01-23T16:37:16;9.10;;;6.70;;
6739;SDS011;3407;49.882;10.920;2023-01-23T16:42:17;9.23;;;6.43;;
6739;SDS011;3407;49.882;10.920;2023-01-23T16:47:15;9.10;;;6.37;;
6739;SDS011;3407;49.882;10.920;2023-01-23T16:52:12;11.23;;;6.63;;
6739;SDS011;3407;49.882;10.920;2023-01-23T16:57:10;9.30;;;7.00;;
6739;SDS011;3407;49.882;10.920;2023-01-23T17:07:24;12.93;;;7.90;;
6739;SDS011;3407;49.882;10.920;2023-01-23T17:12:21;11.60;;;7.40;;
6739;SDS011;3407;49.882;10.920;2023-01-23T17:17:39;9.90;;;7.60;;
6739;SDS011;3407;49.882;10.920;2023-01-23T17:22:38;10.77;;;8.23;;
6739;SDS011;3407;49.882;10.920;2023-01-23T17:27:36;13.73;;;7.70;;
6739;SDS011;3407;49.882;10.920;2023-01-23T17:32:32;11.33;;;6.90;;
6739;SDS011;3407;49.882;10.920;2023-01-23T17:37:29;13.47;;;7.73;;
6739;SDS011;3407;49.882;10.920;2023-01-23T17:42:26;10.90;;;7.93;;
6739;SDS011;3407;49.882;10.920;2023-01-23T17:47:21;10.77;;;7.83;;
6739;SDS011;3407;49.882;10.920;2023-01-23T17:52:17;12.30;;;8.30;;
6739;SDS011;3407;49.882;10.920;2023-01-23T17:57:15;11.70;;;7.87;;
6739;SDS011;3407;49.882;10.920;2023-01-23T18:02:26;12.43;;;8.27;;
6739;SDS011;3407;49.882;10.920;2023-01-23T18:07:22;10.00;;;7.10;;
6739;SDS011;3407;49.882;10.920;2023-01-23T18:12:22;11.93;;;8.37;;
6739;SDS011;3407;49.882;10.920;2023-01-23T18:17:36;17.03;;;8.30;;
6739;SDS011;3407;49.882;10.920;2023-01-23T18:22:51;10.53;;;7.23;;
6739;SDS011;3407;49.882;10.920;2023-01-23T18:27:49;10.90;;;8.13;;
6739;SDS011;3407;49.882;10.920;2023-01-23T18:32:51;14.07;;;8.43;;
6739;SDS011;3407;49.882;10.920;2023-01-23T18:38:06;10.73;;;6.90;;
6739;SDS011;3407;49.882;10.920;2023-01-23T18:43:34;10.87;;;6.87;;
6739;SDS011;3407;49.882;10.920;2023-01-23T18:48:33;17.23;;;8.50;;
6739;SDS011;3407;49.882;10.920;2023-01-23T18:53:35;10.97;;;7.20;;
6739;SDS011;3407;49.882;10.920;2023-01-23T19:03:54;11.83;;;8.07;;
6739;SDS011;3407;49.882;10.920;2023-01-23T19:08:50;10.90;;;7.13;;
6739;SDS011;3407;49.882;10.920;2023-01-23T19:13:58;11.27;;;6.80;;
6739;SDS011;3407;49.882;10.920;2023-01-23T19:24:11;8.73;;;6.37;;
6739;SDS011;3407;49.882;10.920;2023-01-23T19:29:11;9.93;;;6.10;;
6739;SDS011;3407;49.882;10.920;2023-01-23T19:34:09;9.77;;;6.40;;
6739;SDS011;3407;49.882;10.920;2023-01-23T19:39:04;9.30;;;6.13;;
6739;SDS011;3407;49.882;10.920;2023-01-23T19:44:00;9.40;;;7.20;;
6739;SDS011;3407;49.882;10.920;2023-01-23T19:48:59;10.27;;;6.20;;
6739;SDS011;3407;49.882;10.920;2023-01-23T19:53:56;11.67;;;7.33;;
6739;SDS011;3407;49.882;10.920;2023-01-23T19:58:52;7.83;;;5.90;;
6739;SDS011;3407;49.882;10.920;2023-01-23T20:03:50;9.80;;;7.00;;
6739;SDS011;3407;49.882;10.920;2023-01-23T20:08:45;9.87;;;6.23;;
6739;SDS011;3407;49.882;10.920;2023-01-23T20:13:41;12.77;;;7.83;;
6739;SDS011;3407;49.882;10.920;2023-01-23T20:18:37;8.93;;;6.23;;
6739;SDS011;3407;49.882;10.920;2023-01-23T20:23:32;9.50;;;6.50;;
6739;SDS011;3407;49.882;10.920;2023-01-23T20:28:28;12.77;;;6.57;;
6739;SDS011;3407;49.882;10.920;2023-01-23T20:33:25;10.93;;;6.67;;
6739;SDS011;3407;49.882;10.920;2023-01-23T20:38:24;10.10;;;7.37;;
6739;SDS011;3407;49.882;10.920;2023-01-23T20:43:20;12.60;;;8.17;;
6739;SDS011;3407;49.882;10.920;2023-01-23T20:48:16;9.97;;;6.83;;
6739;SDS011;3407;49.882;10.920;2023-01-23T20:53:13;10.10;;;7.23;;
6739;SDS011;3407;49.882;10.920;2023-01-23T20:58:25;11.63;;;7.40;;
6739;SDS011;3407;49.882;10.920;2023-01-23T21:03:40;10.13;;;6.57;;
6739;SDS011;3407;49.882;10.920;2023-01-23T21:08:42;9.77;;;6.80;;
6739;SDS011;3407;49.882;10.920;2023-01-23T21:13:38;9.07;;;6.87;;
6739;SDS011;3407;49.882;10.920;2023-01-23T21:18:34;11.27;;;6.93;;
6739;SDS011;3407;49.882;10.920;2023-01-23T21:23:31;9.37;;;6.33;;
6739;SDS011;3407;49.882;10.920;2023-01-23T21:28:28;9.93;;;6.53;;
6739;SDS011;3407;49.882;10.920;2023-01-23T21:33:25;8.43;;;6.73;;
6739;SDS011;3407;49.882;10.920;2023-01-23T21:38:20;10.83;;;7.57;;
6739;SDS011;3407;49.882;10.920;2023-01-23T21:43:16;10.50;;;6.80;;
6739;SDS011;3407;49.882;10.920;2023-01-23T21:48:12;9.93;;;6.70;;
6739;SDS011;3407;49.882;10.920;2023-01-23T21:53:08;13.50;;;7.57;;
6739;SDS011;3407;49.882;10.920;2023-01-23T21:58:03;10.50;;;7.47;;
6739;SDS011;3407;49.882;10.920;2023-01-23T22:02:59;9.87;;;6.77;;
6739;SDS011;3407;49.882;10.920;2023-01-23T22:07:55;10.07;;;7.30;;
6739;SDS011;3407;49.882;10.920;2023-01-23T22:12:51;13.10;;;7.70;;
6739;SDS011;3407;49.882;10.920;2023-01-23T22:17:47;11.47;;;7.33;;
6739;SDS011;3407;49.882;10.920;2023-01-23T22:22:43;10.47;;;7.43;;
6739;SDS011;3407;49.882;10.920;2023-01-23T22:27:38;8.00;;;6.53;;
6739;SDS011;3407;49.882;10.920;2023-01-23T22:32:34;8.77;;;6.47;;
6739;SDS011;3407;49.882;10.920;2023-01-23T22:37:30;9.67;;;6.93;;
6739;SDS011;3407;49.882;10.920;2023-01-23T22:42:26;12.33;;;7.37;;
6739;SDS011;3407;49.882;10.920;2023-01-23T22:47:22;9.10;;;6.77;;
6739;SDS011;3407;49.882;10.920;2023-01-23T22:52:18;9.53;;;7.07;;
6739;SDS011;3407;49.882;10.920;2023-01-23T22:57:13;10.13;;;7.50;;
6739;SDS011;3407;49.882;10.920;2023-01-23T23:02:09;9.33;;;7.03;;
6739;SDS011;3407;49.882;10.920;2023-01-23T23:07:05;13.83;;;8.07;;
6739;SDS011;3407;49.882;10.920;2023-01-23T23:12:00;9.40;;;6.80;;
6739;SDS011;3407;49.882;10.920;2023-01-23T23:16:56;8.20;;;6.33;;
6739;SDS011;3407;49.882;10.920;2023-01-23T23:21:51;9.23;;;6.40;;
6739;SDS011;3407;49.882;10.920;2023-01-23T23:26:47;10.17;;;6.67;;
6739;SDS011;3407;49.882;10.920;2023-01-23T23:31:43;10.07;;;6.97;;
6739;SDS011;3407;49.882;10.920;2023-01-23T23:36:39;9.80;;;7.03;;
6739;SDS011;3407;49.882;10.920;2023-01-23T23:41:34;9.37;;;6.80;;
6739;SDS011;3407;49.882;10.920;2023-01-23T23:46:30;10.03;;;6.90;;
6739;SDS011;3407;49.882;10.920;2023-01-23T23:51:26;9.93;;;7.30;;
6739;SDS011;3407;49.882;10.920;2023-01-23T23:56:23;8.93;;;6.63;;
